sensor_id;sensor_type;location;lat;lon;timestamp;P1;durP1;ratioP1;P2;durP2;ratioP2
13250;SDS011;6692;50.710;7.180;2023-04-01T00:01:17;139.23;;;134.37;;
13250;SDS011;6692;50.710;7.180;2023-04-01T00:03:18;183.30;;;177.03;;
13250;SDS011;6692;50.710;7.180;2023-04-01T00:05:18;152.63;;;147.37;;
13250;SDS011;6692;50.710;7.180;2023-04-01T00:07:19;190.60;;;183.77;;
13250;SDS011;6692;50.710;7.180;2023-04-01T00:09:20;193.40;;;186.77;;
13250;SDS011;6692;50.710;7.180;2023-04-01T00:11:20;204.53;;;197.57;;
13250;SDS011;6692;50.710;7.180;2023-04-01T00:13:22;184.93;;;178.53;;
13250;SDS011;6692;50.710;7.180;2023-04-01T00:15:22;157.03;;;151.53;;
13250;SDS011;6692;50.710;7.180;2023-04-01T00:17:24;214.80;;;207.50;;
13250;SDS011;6692;50.710;7.180;2023-04-01T00:19:25;219.20;;;211.60;;
13250;SDS011;6692;50.710;7.180;2023-04-01T00:21:25;201.37;;;194.50;;
13250;SDS011;6692;50.710;7.180;2023-04-01T00:23:26;176.70;;;170.57;;
13250;SDS011;6692;50.710;7.180;2023-04-01T00:25:27;183.27;;;176.97;;
13250;SDS011;6692;50.710;7.180;2023-04-01T00:27:28;202.27;;;195.23;;
13250;SDS011;6692;50.710;7.180;2023-04-01T00:29:29;183.57;;;177.30;;
13250;SDS011;6692;50.710;7.180;2023-04-01T00:31:30;173.80;;;167.80;;
13250;SDS011;6692;50.710;7.180;2023-04-01T00:33:30;137.33;;;132.53;;
13250;SDS011;6692;50.710;7.180;2023-04-01T00:35:31;184.90;;;178.43;;
13250;SDS011;6692;50.710;7.180;2023-04-01T00:37:34;175.17;;;169.17;;
13250;SDS011;6692;50.710;7.180;2023-04-01T00:39:33;201.40;;;194.57;;
13250;SDS011;6692;50.710;7.180;2023-04-01T00:41:34;191.27;;;184.77;;
13250;SDS011;6692;50.710;7.180;2023-04-01T00:43:34;190.53;;;183.93;;
13250;SDS011;6692;50.710;7.180;2023-04-01T00:45:37;188.23;;;181.67;;
13250;SDS011;6692;50.710;7.180;2023-04-01T00:47:36;198.77;;;192.03;;
13250;SDS011;6692;50.710;7.180;2023-04-01T00:49:37;189.73;;;183.17;;
13250;SDS011;6692;50.710;7.180;2023-04-01T00:51:37;202.00;;;195.07;;
13250;SDS011;6692;50.710;7.180;2023-04-01T00:53:39;172.63;;;166.53;;
13250;SDS011;6692;50.710;7.180;2023-04-01T00:55:40;200.33;;;193.47;;
13250;SDS011;6692;50.710;7.180;2023-04-01T00:57:39;155.03;;;149.47;;
13250;SDS011;6692;50.710;7.180;2023-04-01T00:59:41;178.83;;;172.47;;
13250;SDS011;6692;50.710;7.180;2023-04-01T01:01:41;158.73;;;153.10;;
13250;SDS011;6692;50.710;7.180;2023-04-01T01:03:41;179.73;;;173.43;;
13250;SDS011;6692;50.710;7.180;2023-04-01T01:05:51;189.57;;;183.07;;
13250;SDS011;6692;50.710;7.180;2023-04-01T01:07:56;173.87;;;167.77;;
13250;SDS011;6692;50.710;7.180;2023-04-01T01:10:02;180.47;;;174.27;;
13250;SDS011;6692;50.710;7.180;2023-04-01T01:12:04;193.63;;;186.93;;
13250;SDS011;6692;50.710;7.180;2023-04-01T01:14:19;168.63;;;162.60;;
13250;SDS011;6692;50.710;7.180;2023-04-01T01:16:22;202.90;;;196.07;;
13250;SDS011;6692;50.710;7.180;2023-04-01T01:18:29;176.23;;;170.17;;
13250;SDS011;6692;50.710;7.180;2023-04-01T01:22:52;191.90;;;185.33;;
13250;SDS011;6692;50.710;7.180;2023-04-01T01:25:01;186.30;;;179.93;;
13250;SDS011;6692;50.710;7.180;2023-04-01T01:27:00;203.87;;;196.80;;
13250;SDS011;6692;50.710;7.180;2023-04-01T01:29:07;207.73;;;200.67;;
13250;SDS011;6692;50.710;7.180;2023-04-01T01:33:25;157.60;;;152.10;;
13250;SDS011;6692;50.710;7.180;2023-04-01T01:35:28;174.93;;;168.87;;
13250;SDS011;6692;50.710;7.180;2023-04-01T01:37:49;180.03;;;173.87;;
13250;SDS011;6692;50.710;7.180;2023-04-01T01:39:51;156.17;;;150.77;;
13250;SDS011;6692;50.710;7.180;2023-04-01T01:41:50;179.77;;;173.53;;
13250;SDS011;6692;50.710;7.180;2023-04-01T01:43:50;191.13;;;184.43;;
13250;SDS011;6692;50.710;7.180;2023-04-01T01:45:53;197.63;;;190.90;;
13250;SDS011;6692;50.710;7.180;2023-04-01T01:47:53;181.40;;;175.13;;
13250;SDS011;6692;50.710;7.180;2023-04-01T01:49:54;181.97;;;175.73;;
13250;SDS011;6692;50.710;7.180;2023-04-01T01:51:55;183.93;;;177.47;;
13250;SDS011;6692;50.710;7.180;2023-04-01T01:53:55;181.37;;;175.10;;
13250;SDS011;6692;50.710;7.180;2023-04-01T01:55:56;139.70;;;134.80;;
13250;SDS011;6692;50.710;7.180;2023-04-01T01:57:58;166.63;;;160.80;;
13250;SDS011;6692;50.710;7.180;2023-04-01T02:00:00;162.67;;;156.97;;
13250;SDS011;6692;50.710;7.180;2023-04-01T02:01:59;174.57;;;168.60;;
13250;SDS011;6692;50.710;7.180;2023-04-01T02:03:59;195.57;;;188.90;;
13250;SDS011;6692;50.710;7.180;2023-04-01T02:06:00;173.13;;;167.20;;
13250;SDS011;6692;50.710;7.180;2023-04-01T02:08:17;168.73;;;162.87;;
13250;SDS011;6692;50.710;7.180;2023-04-01T02:10:17;158.13;;;152.67;;
13250;SDS011;6692;50.710;7.180;2023-04-01T02:12:17;174.43;;;168.50;;
13250;SDS011;6692;50.710;7.180;2023-04-01T02:14:20;172.43;;;166.57;;
13250;SDS011;6692;50.710;7.180;2023-04-01T02:16:22;176.73;;;170.77;;
13250;SDS011;6692;50.710;7.180;2023-04-01T02:18:21;128.13;;;123.53;;
13250;SDS011;6692;50.710;7.180;2023-04-01T02:20:22;168.20;;;162.40;;
13250;SDS011;6692;50.710;7.180;2023-04-01T02:22:23;175.47;;;169.37;;
13250;SDS011;6692;50.710;7.180;2023-04-01T02:24:23;183.33;;;176.93;;
13250;SDS011;6692;50.710;7.180;2023-04-01T02:26:24;165.73;;;160.03;;
13250;SDS011;6692;50.710;7.180;2023-04-01T02:28:25;183.87;;;177.53;;
13250;SDS011;6692;50.710;7.180;2023-04-01T02:30:27;159.20;;;153.73;;
13250;SDS011;6692;50.710;7.180;2023-04-01T02:32:28;152.40;;;147.07;;
13250;SDS011;6692;50.710;7.180;2023-04-01T02:34:29;175.47;;;169.33;;
13250;SDS011;6692;50.710;7.180;2023-04-01T02:36:30;183.90;;;177.60;;
13250;SDS011;6692;50.710;7.180;2023-04-01T02:38:31;175.60;;;169.53;;
13250;SDS011;6692;50.710;7.180;2023-04-01T02:42:40;162.73;;;157.03;;
13250;SDS011;6692;50.710;7.180;2023-04-01T02:44:41;186.47;;;180.07;;
13250;SDS011;6692;50.710;7.180;2023-04-01T02:46:42;184.13;;;177.73;;
13250;SDS011;6692;50.710;7.180;2023-04-01T02:48:42;181.60;;;175.23;;
13250;SDS011;6692;50.710;7.180;2023-04-01T02:50:44;161.20;;;155.53;;
13250;SDS011;6692;50.710;7.180;2023-04-01T02:52:45;192.57;;;185.90;;
13250;SDS011;6692;50.710;7.180;2023-04-01T02:54:45;207.77;;;200.67;;
13250;SDS011;6692;50.710;7.180;2023-04-01T02:56:46;174.50;;;168.30;;
13250;SDS011;6692;50.710;7.180;2023-04-01T02:58:47;193.60;;;186.93;;
13250;SDS011;6692;50.710;7.180;2023-04-01T03:00:47;196.13;;;189.33;;
13250;SDS011;6692;50.710;7.180;2023-04-01T03:02:49;194.70;;;187.97;;
13250;SDS011;6692;50.710;7.180;2023-04-01T03:04:49;203.27;;;196.20;;
13250;SDS011;6692;50.710;7.180;2023-04-01T03:06:50;192.93;;;186.23;;
13250;SDS011;6692;50.710;7.180;2023-04-01T03:08:51;187.77;;;181.33;;
13250;SDS011;6692;50.710;7.180;2023-04-01T03:10:52;190.13;;;183.60;;
13250;SDS011;6692;50.710;7.180;2023-04-01T03:12:53;214.33;;;207.07;;
13250;SDS011;6692;50.710;7.180;2023-04-01T03:14:54;207.50;;;200.40;;
13250;SDS011;6692;50.710;7.180;2023-04-01T03:16:54;198.73;;;191.93;;
13250;SDS011;6692;50.710;7.180;2023-04-01T03:18:56;205.70;;;198.73;;
13250;SDS011;6692;50.710;7.180;2023-04-01T03:20:56;196.77;;;190.03;;
13250;SDS011;6692;50.710;7.180;2023-04-01T03:22:57;213.83;;;206.53;;
13250;SDS011;6692;50.710;7.180;2023-04-01T03:24:58;203.20;;;196.23;;
13250;SDS011;6692;50.710;7.180;2023-04-01T03:26:58;204.07;;;197.03;;
13250;SDS011;6692;50.710;7.180;2023-04-01T03:28:59;201.80;;;194.80;;
13250;SDS011;6692;50.710;7.180;2023-04-01T03:31:00;207.23;;;200.17;;
13250;SDS011;6692;50.710;7.180;2023-04-01T03:33:00;211.57;;;204.27;;
13250;SDS011;6692;50.710;7.180;2023-04-01T03:35:02;222.13;;;214.50;;
13250;SDS011;6692;50.710;7.180;2023-04-01T03:37:03;220.37;;;212.77;;
13250;SDS011;6692;50.710;7.180;2023-04-01T03:39:04;213.13;;;205.87;;
13250;SDS011;6692;50.710;7.180;2023-04-01T03:41:05;201.10;;;194.23;;
13250;SDS011;6692;50.710;7.180;2023-04-01T03:43:06;213.17;;;205.77;;
13250;SDS011;6692;50.710;7.180;2023-04-01T03:45:07;210.03;;;202.77;;
13250;SDS011;6692;50.710;7.180;2023-04-01T03:47:08;205.13;;;198.13;;
13250;SDS011;6692;50.710;7.180;2023-04-01T03:49:09;197.73;;;190.93;;
13250;SDS011;6692;50.710;7.180;2023-04-01T03:51:10;211.70;;;204.40;;
13250;SDS011;6692;50.710;7.180;2023-04-01T03:53:11;217.87;;;210.43;;
13250;SDS011;6692;50.710;7.180;2023-04-01T03:55:13;203.03;;;196.17;;
13250;SDS011;6692;50.710;7.180;2023-04-01T03:57:14;209.83;;;202.63;;
13250;SDS011;6692;50.710;7.180;2023-04-01T03:59:15;213.63;;;206.43;;
13250;SDS011;6692;50.710;7.180;2023-04-01T04:01:17;209.93;;;202.80;;
13250;SDS011;6692;50.710;7.180;2023-04-01T04:03:18;211.17;;;204.00;;
13250;SDS011;6692;50.710;7.180;2023-04-01T04:05:19;206.43;;;199.43;;
13250;SDS011;6692;50.710;7.180;2023-04-01T04:07:19;215.50;;;208.20;;
13250;SDS011;6692;50.710;7.180;2023-04-01T04:09:20;210.10;;;203.03;;
13250;SDS011;6692;50.710;7.180;2023-04-01T04:11:21;183.87;;;177.60;;
13250;SDS011;6692;50.710;7.180;2023-04-01T04:13:21;181.20;;;174.90;;
13250;SDS011;6692;50.710;7.180;2023-04-01T04:15:23;192.60;;;186.10;;
13250;SDS011;6692;50.710;7.180;2023-04-01T04:17:24;194.43;;;187.77;;
13250;SDS011;6692;50.710;7.180;2023-04-01T04:19:25;206.63;;;199.53;;
13250;SDS011;6692;50.710;7.180;2023-04-01T04:21:26;202.03;;;195.17;;
13250;SDS011;6692;50.710;7.180;2023-04-01T04:23:27;217.07;;;209.60;;
13250;SDS011;6692;50.710;7.180;2023-04-01T04:25:28;212.67;;;205.50;;
13250;SDS011;6692;50.710;7.180;2023-04-01T04:27:28;206.07;;;199.07;;
13250;SDS011;6692;50.710;7.180;2023-04-01T04:29:29;195.50;;;188.90;;
13250;SDS011;6692;50.710;7.180;2023-04-01T04:31:30;163.63;;;158.03;;
13250;SDS011;6692;50.710;7.180;2023-04-01T04:33:30;160.27;;;154.73;;
13250;SDS011;6692;50.710;7.180;2023-04-01T04:35:31;172.23;;;166.37;;
13250;SDS011;6692;50.710;7.180;2023-04-01T04:37:32;187.30;;;180.93;;
13250;SDS011;6692;50.710;7.180;2023-04-01T04:39:32;173.50;;;167.50;;
13250;SDS011;6692;50.710;7.180;2023-04-01T04:41:36;178.53;;;172.47;;
13250;SDS011;6692;50.710;7.180;2023-04-01T04:43:34;174.17;;;168.20;;
13250;SDS011;6692;50.710;7.180;2023-04-01T04:45:36;181.20;;;175.03;;
13250;SDS011;6692;50.710;7.180;2023-04-01T04:47:37;154.87;;;149.43;;
13250;SDS011;6692;50.710;7.180;2023-04-01T04:49:38;159.17;;;153.73;;
13250;SDS011;6692;50.710;7.180;2023-04-01T04:51:39;165.73;;;160.03;;
13250;SDS011;6692;50.710;7.180;2023-04-01T04:53:39;174.50;;;168.57;;
13250;SDS011;6692;50.710;7.180;2023-04-01T04:55:43;158.33;;;152.83;;
13250;SDS011;6692;50.710;7.180;2023-04-01T04:57:44;156.83;;;151.43;;
13250;SDS011;6692;50.710;7.180;2023-04-01T04:59:45;169.30;;;163.50;;
13250;SDS011;6692;50.710;7.180;2023-04-01T05:01:47;173.23;;;167.37;;
13250;SDS011;6692;50.710;7.180;2023-04-01T05:03:47;181.13;;;175.00;;
13250;SDS011;6692;50.710;7.180;2023-04-01T05:05:50;164.27;;;158.70;;
13250;SDS011;6692;50.710;7.180;2023-04-01T05:07:49;185.87;;;179.37;;
13250;SDS011;6692;50.710;7.180;2023-04-01T05:09:50;185.07;;;178.70;;
13250;SDS011;6692;50.710;7.180;2023-04-01T05:11:51;188.90;;;182.47;;
13250;SDS011;6692;50.710;7.180;2023-04-01T05:13:51;176.77;;;170.77;;
13250;SDS011;6692;50.710;7.180;2023-04-01T05:15:52;186.27;;;179.97;;
13250;SDS011;6692;50.710;7.180;2023-04-01T05:17:53;193.00;;;186.40;;
13250;SDS011;6692;50.710;7.180;2023-04-01T05:19:54;187.47;;;181.03;;
13250;SDS011;6692;50.710;7.180;2023-04-01T05:21:55;194.20;;;187.60;;
13250;SDS011;6692;50.710;7.180;2023-04-01T05:23:56;202.20;;;195.33;;
13250;SDS011;6692;50.710;7.180;2023-04-01T05:25:57;197.07;;;190.37;;
13250;SDS011;6692;50.710;7.180;2023-04-01T05:27:58;216.67;;;209.33;;
13250;SDS011;6692;50.710;7.180;2023-04-01T05:29:59;209.97;;;202.83;;
13250;SDS011;6692;50.710;7.180;2023-04-01T05:32:00;224.17;;;216.53;;
13250;SDS011;6692;50.710;7.180;2023-04-01T05:34:01;223.20;;;215.63;;
13250;SDS011;6692;50.710;7.180;2023-04-01T05:36:07;221.27;;;213.80;;
13250;SDS011;6692;50.710;7.180;2023-04-01T05:38:08;227.07;;;219.43;;
13250;SDS011;6692;50.710;7.180;2023-04-01T05:40:09;225.23;;;217.60;;
13250;SDS011;6692;50.710;7.180;2023-04-01T05:42:11;223.40;;;215.90;;
13250;SDS011;6692;50.710;7.180;2023-04-01T05:44:12;217.00;;;209.70;;
13250;SDS011;6692;50.710;7.180;2023-04-01T05:46:13;221.27;;;213.37;;
13250;SDS011;6692;50.710;7.180;2023-04-01T05:48:14;223.83;;;216.23;;
13250;SDS011;6692;50.710;7.180;2023-04-01T05:50:15;202.57;;;195.73;;
13250;SDS011;6692;50.710;7.180;2023-04-01T05:52:15;201.83;;;194.90;;
13250;SDS011;6692;50.710;7.180;2023-04-01T05:54:17;213.13;;;205.90;;
13250;SDS011;6692;50.710;7.180;2023-04-01T05:56:17;224.03;;;216.43;;
13250;SDS011;6692;50.710;7.180;2023-04-01T05:58:18;223.00;;;215.40;;
13250;SDS011;6692;50.710;7.180;2023-04-01T06:00:19;237.17;;;229.07;;
13250;SDS011;6692;50.710;7.180;2023-04-01T06:02:20;230.13;;;222.33;;
13250;SDS011;6692;50.710;7.180;2023-04-01T06:04:21;219.37;;;211.93;;
13250;SDS011;6692;50.710;7.180;2023-04-01T06:06:26;214.67;;;207.33;;
13250;SDS011;6692;50.710;7.180;2023-04-01T06:08:26;206.83;;;199.83;;
13250;SDS011;6692;50.710;7.180;2023-04-01T06:10:37;221.27;;;213.73;;
13250;SDS011;6692;50.710;7.180;2023-04-01T06:13:12;223.53;;;216.03;;
13250;SDS011;6692;50.710;7.180;2023-04-01T06:17:47;206.07;;;199.00;;
13250;SDS011;6692;50.710;7.180;2023-04-01T06:19:50;212.70;;;205.47;;
13250;SDS011;6692;50.710;7.180;2023-04-01T06:21:59;227.03;;;219.33;;
13250;SDS011;6692;50.710;7.180;2023-04-01T06:24:05;230.97;;;223.20;;
13250;SDS011;6692;50.710;7.180;2023-04-01T06:26:09;254.53;;;245.77;;
13250;SDS011;6692;50.710;7.180;2023-04-01T06:30:34;234.63;;;226.80;;
13250;SDS011;6692;50.710;7.180;2023-04-01T06:32:38;236.10;;;228.13;;
13250;SDS011;6692;50.710;7.180;2023-04-01T06:34:59;232.10;;;224.30;;
13250;SDS011;6692;50.710;7.180;2023-04-01T06:39:36;236.43;;;228.53;;
13250;SDS011;6692;50.710;7.180;2023-04-01T06:46:19;243.80;;;235.43;;
13250;SDS011;6692;50.710;7.180;2023-04-01T06:48:41;247.37;;;238.93;;
13250;SDS011;6692;50.710;7.180;2023-04-01T06:50:46;255.80;;;247.03;;
13250;SDS011;6692;50.710;7.180;2023-04-01T06:52:55;265.97;;;256.97;;
13250;SDS011;6692;50.710;7.180;2023-04-01T06:54:55;260.20;;;251.23;;
13250;SDS011;6692;50.710;7.180;2023-04-01T06:56:55;267.43;;;258.17;;
13250;SDS011;6692;50.710;7.180;2023-04-01T06:59:12;274.47;;;265.03;;
13250;SDS011;6692;50.710;7.180;2023-04-01T07:01:14;251.80;;;243.17;;
13250;SDS011;6692;50.710;7.180;2023-04-01T07:03:16;272.67;;;263.23;;
13250;SDS011;6692;50.710;7.180;2023-04-01T07:05:17;266.67;;;257.63;;
13250;SDS011;6692;50.710;7.180;2023-04-01T07:07:24;265.17;;;256.17;;
13250;SDS011;6692;50.710;7.180;2023-04-01T07:09:38;253.43;;;244.73;;
13250;SDS011;6692;50.710;7.180;2023-04-01T07:11:37;279.43;;;269.83;;
13250;SDS011;6692;50.710;7.180;2023-04-01T07:13:41;289.07;;;279.10;;
13250;SDS011;6692;50.710;7.180;2023-04-01T07:15:40;299.73;;;289.43;;
13250;SDS011;6692;50.710;7.180;2023-04-01T07:17:41;318.60;;;307.50;;
13250;SDS011;6692;50.710;7.180;2023-04-01T07:22:04;277.60;;;268.17;;
13250;SDS011;6692;50.710;7.180;2023-04-01T07:24:05;310.67;;;299.93;;
13250;SDS011;6692;50.710;7.180;2023-04-01T07:26:21;341.03;;;329.07;;
13250;SDS011;6692;50.710;7.180;2023-04-01T07:28:22;325.37;;;313.73;;
13250;SDS011;6692;50.710;7.180;2023-04-01T07:30:23;345.90;;;333.50;;
13250;SDS011;6692;50.710;7.180;2023-04-01T07:32:30;352.17;;;339.47;;
13250;SDS011;6692;50.710;7.180;2023-04-01T07:34:40;375.17;;;361.43;;
13250;SDS011;6692;50.710;7.180;2023-04-01T07:36:59;342.10;;;329.83;;
13250;SDS011;6692;50.710;7.180;2023-04-01T07:39:06;329.47;;;317.97;;
13250;SDS011;6692;50.710;7.180;2023-04-01T07:41:10;349.17;;;337.00;;
13250;SDS011;6692;50.710;7.180;2023-04-01T07:43:16;332.60;;;320.87;;
13250;SDS011;6692;50.710;7.180;2023-04-01T07:45:31;268.30;;;259.20;;
13250;SDS011;6692;50.710;7.180;2023-04-01T07:47:35;262.50;;;253.60;;
13250;SDS011;6692;50.710;7.180;2023-04-01T07:51:01;219.20;;;211.83;;
13250;SDS011;6692;50.710;7.180;2023-04-01T07:52:12;219.83;;;212.43;;
13250;SDS011;6692;50.710;7.180;2023-04-01T07:54:11;219.60;;;212.17;;
13250;SDS011;6692;50.710;7.180;2023-04-01T07:56:28;210.17;;;203.13;;
13250;SDS011;6692;50.710;7.180;2023-04-01T07:58:35;219.60;;;212.33;;
13250;SDS011;6692;50.710;7.180;2023-04-01T08:00:51;204.70;;;197.77;;
13250;SDS011;6692;50.710;7.180;2023-04-01T08:05:17;222.60;;;215.17;;
13250;SDS011;6692;50.710;7.180;2023-04-01T08:08:39;217.67;;;210.27;;
13250;SDS011;6692;50.710;7.180;2023-04-01T08:10:57;207.63;;;200.63;;
13250;SDS011;6692;50.710;7.180;2023-04-01T08:19:01;237.10;;;229.00;;
13250;SDS011;6692;50.710;7.180;2023-04-01T08:21:00;242.20;;;234.00;;
13250;SDS011;6692;50.710;7.180;2023-04-01T08:23:04;248.87;;;240.33;;
13250;SDS011;6692;50.710;7.180;2023-04-01T08:25:18;252.97;;;244.37;;
13250;SDS011;6692;50.710;7.180;2023-04-01T08:27:21;268.60;;;259.40;;
13250;SDS011;6692;50.710;7.180;2023-04-01T08:29:25;268.60;;;259.50;;
13250;SDS011;6692;50.710;7.180;2023-04-01T08:33:54;217.20;;;209.90;;
13250;SDS011;6692;50.710;7.180;2023-04-01T08:36:02;228.17;;;220.57;;
13250;SDS011;6692;50.710;7.180;2023-04-01T08:38:17;219.33;;;211.93;;
13250;SDS011;6692;50.710;7.180;2023-04-01T08:40:46;225.63;;;218.13;;
13250;SDS011;6692;50.710;7.180;2023-04-01T08:42:50;218.37;;;211.03;;
13250;SDS011;6692;50.710;7.180;2023-04-01T08:45:10;234.77;;;226.83;;
13250;SDS011;6692;50.710;7.180;2023-04-01T08:49:25;236.67;;;228.67;;
13250;SDS011;6692;50.710;7.180;2023-04-01T08:56:10;210.17;;;203.03;;
13250;SDS011;6692;50.710;7.180;2023-04-01T09:00:30;227.87;;;220.10;;
13250;SDS011;6692;50.710;7.180;2023-04-01T09:02:50;237.20;;;229.07;;
13250;SDS011;6692;50.710;7.180;2023-04-01T09:05:06;231.40;;;223.53;;
13250;SDS011;6692;50.710;7.180;2023-04-01T09:07:12;247.87;;;239.43;;
13250;SDS011;6692;50.710;7.180;2023-04-01T09:09:37;235.23;;;227.20;;
13250;SDS011;6692;50.710;7.180;2023-04-01T09:11:47;248.67;;;240.03;;
13250;SDS011;6692;50.710;7.180;2023-04-01T09:13:49;256.37;;;247.57;;
13250;SDS011;6692;50.710;7.180;2023-04-01T09:17:01;260.80;;;251.93;;
13250;SDS011;6692;50.710;7.180;2023-04-01T09:18:34;223.40;;;215.90;;
13250;SDS011;6692;50.710;7.180;2023-04-01T09:20:53;221.93;;;214.33;;
13250;SDS011;6692;50.710;7.180;2023-04-01T09:23:22;250.53;;;242.00;;
13250;SDS011;6692;50.710;7.180;2023-04-01T09:25:22;237.03;;;229.03;;
13250;SDS011;6692;50.710;7.180;2023-04-01T09:27:27;252.83;;;244.27;;
13250;SDS011;6692;50.710;7.180;2023-04-01T09:29:33;296.50;;;286.37;;
13250;SDS011;6692;50.710;7.180;2023-04-01T09:31:50;276.07;;;266.60;;
13250;SDS011;6692;50.710;7.180;2023-04-01T09:34:05;303.00;;;292.50;;
13250;SDS011;6692;50.710;7.180;2023-04-01T09:36:45;311.80;;;301.00;;
13250;SDS011;6692;50.710;7.180;2023-04-01T09:38:39;289.00;;;279.20;;
13250;SDS011;6692;50.710;7.180;2023-04-01T09:40:46;304.47;;;294.13;;
13250;SDS011;6692;50.710;7.180;2023-04-01T09:43:05;268.83;;;259.73;;
13250;SDS011;6692;50.710;7.180;2023-04-01T09:45:09;270.53;;;261.37;;
13250;SDS011;6692;50.710;7.180;2023-04-01T09:47:25;262.07;;;253.20;;
13250;SDS011;6692;50.710;7.180;2023-04-01T09:49:34;247.20;;;238.83;;
13250;SDS011;6692;50.710;7.180;2023-04-01T09:54:16;231.67;;;223.87;;
13250;SDS011;6692;50.710;7.180;2023-04-01T09:56:27;233.63;;;225.83;;
13250;SDS011;6692;50.710;7.180;2023-04-01T09:58:29;264.87;;;255.90;;
13250;SDS011;6692;50.710;7.180;2023-04-01T10:00:55;260.27;;;251.33;;
13250;SDS011;6692;50.710;7.180;2023-04-01T10:05:33;214.43;;;207.27;;
13250;SDS011;6692;50.710;7.180;2023-04-01T10:08:08;235.83;;;227.87;;
13250;SDS011;6692;50.710;7.180;2023-04-01T10:10:14;236.87;;;228.90;;
13250;SDS011;6692;50.710;7.180;2023-04-01T10:12:17;248.93;;;240.50;;
13250;SDS011;6692;50.710;7.180;2023-04-01T10:14:25;249.63;;;241.13;;
13250;SDS011;6692;50.710;7.180;2023-04-01T10:16:40;249.73;;;241.33;;
13250;SDS011;6692;50.710;7.180;2023-04-01T10:21:14;230.93;;;223.03;;
13250;SDS011;6692;50.710;7.180;2023-04-01T10:23:17;237.17;;;229.10;;
13250;SDS011;6692;50.710;7.180;2023-04-01T10:25:53;251.93;;;243.50;;
13250;SDS011;6692;50.710;7.180;2023-04-01T10:27:56;216.43;;;209.17;;
13250;SDS011;6692;50.710;7.180;2023-04-01T10:30:05;227.97;;;220.23;;
13250;SDS011;6692;50.710;7.180;2023-04-01T10:33:07;208.53;;;201.53;;
13250;SDS011;6692;50.710;7.180;2023-04-01T10:34:54;192.00;;;185.47;;
13250;SDS011;6692;50.710;7.180;2023-04-01T10:36:51;228.13;;;220.50;;
13250;SDS011;6692;50.710;7.180;2023-04-01T10:39:07;258.47;;;249.70;;
13250;SDS011;6692;50.710;7.180;2023-04-01T10:41:27;245.93;;;237.67;;
13250;SDS011;6692;50.710;7.180;2023-04-01T10:43:31;276.30;;;266.83;;
13250;SDS011;6692;50.710;7.180;2023-04-01T10:52:17;302.03;;;291.70;;
13250;SDS011;6692;50.710;7.180;2023-04-01T10:54:35;327.20;;;315.97;;
13250;SDS011;6692;50.710;7.180;2023-04-01T10:56:44;327.40;;;315.97;;
13250;SDS011;6692;50.710;7.180;2023-04-01T10:58:51;328.83;;;317.20;;
13250;SDS011;6692;50.710;7.180;2023-04-01T11:01:38;288.70;;;278.87;;
13250;SDS011;6692;50.710;7.180;2023-04-01T11:08:33;249.53;;;241.17;;
13250;SDS011;6692;50.710;7.180;2023-04-01T11:10:48;268.77;;;259.57;;
13250;SDS011;6692;50.710;7.180;2023-04-01T11:13:21;273.67;;;264.47;;
13250;SDS011;6692;50.710;7.180;2023-04-01T11:15:42;271.90;;;262.53;;
13250;SDS011;6692;50.710;7.180;2023-04-01T11:17:50;320.93;;;309.60;;
13250;SDS011;6692;50.710;7.180;2023-04-01T11:20:05;294.07;;;284.07;;
13250;SDS011;6692;50.710;7.180;2023-04-01T11:22:24;288.37;;;278.50;;
13250;SDS011;6692;50.710;7.180;2023-04-01T11:24:42;299.43;;;289.23;;
13250;SDS011;6692;50.710;7.180;2023-04-01T11:26:52;299.83;;;289.43;;
13250;SDS011;6692;50.710;7.180;2023-04-01T11:31:05;300.03;;;289.67;;
13250;SDS011;6692;50.710;7.180;2023-04-01T11:33:14;324.80;;;313.53;;
13250;SDS011;6692;50.710;7.180;2023-04-01T11:35:19;327.53;;;316.07;;
13250;SDS011;6692;50.710;7.180;2023-04-01T11:37:37;291.70;;;281.77;;
13250;SDS011;6692;50.710;7.180;2023-04-01T11:39:38;263.37;;;254.53;;
13250;SDS011;6692;50.710;7.180;2023-04-01T11:41:49;264.00;;;255.10;;
13250;SDS011;6692;50.710;7.180;2023-04-01T11:43:57;263.80;;;255.00;;
13250;SDS011;6692;50.710;7.180;2023-04-01T11:46:14;280.30;;;270.80;;
13250;SDS011;6692;50.710;7.180;2023-04-01T11:48:21;266.33;;;257.20;;
13250;SDS011;6692;50.710;7.180;2023-04-01T11:53:02;270.70;;;261.50;;
13250;SDS011;6692;50.710;7.180;2023-04-01T11:55:20;292.17;;;282.20;;
13250;SDS011;6692;50.710;7.180;2023-04-01T12:00:01;270.07;;;260.97;;
13250;SDS011;6692;50.710;7.180;2023-04-01T12:07:10;301.33;;;291.00;;
13250;SDS011;6692;50.710;7.180;2023-04-01T12:09:18;306.73;;;296.00;;
13250;SDS011;6692;50.710;7.180;2023-04-01T12:11:21;333.87;;;322.03;;
13250;SDS011;6692;50.710;7.180;2023-04-01T12:13:49;333.07;;;321.27;;
13250;SDS011;6692;50.710;7.180;2023-04-01T12:18:17;317.67;;;306.57;;
13250;SDS011;6692;50.710;7.180;2023-04-01T12:20:36;327.90;;;316.40;;
13250;SDS011;6692;50.710;7.180;2023-04-01T12:22:40;350.97;;;338.63;;
13250;SDS011;6692;50.710;7.180;2023-04-01T12:24:47;336.20;;;324.40;;
13250;SDS011;6692;50.710;7.180;2023-04-01T12:26:54;352.63;;;340.23;;
13250;SDS011;6692;50.710;7.180;2023-04-01T12:28:59;355.63;;;342.93;;
13250;SDS011;6692;50.710;7.180;2023-04-01T12:32:15;380.57;;;366.87;;
13250;SDS011;6692;50.710;7.180;2023-04-01T12:33:42;330.00;;;318.37;;
13250;SDS011;6692;50.710;7.180;2023-04-01T12:40:18;339.27;;;327.37;;
13250;SDS011;6692;50.710;7.180;2023-04-01T12:42:24;380.57;;;366.70;;
13250;SDS011;6692;50.710;7.180;2023-04-01T12:44:37;353.40;;;340.93;;
13250;SDS011;6692;50.710;7.180;2023-04-01T12:46:40;374.43;;;361.00;;
13250;SDS011;6692;50.710;7.180;2023-04-01T12:53:31;394.77;;;380.37;;
13250;SDS011;6692;50.710;7.180;2023-04-01T12:55:37;382.00;;;367.97;;
13250;SDS011;6692;50.710;7.180;2023-04-01T12:57:44;376.20;;;362.70;;
13250;SDS011;6692;50.710;7.180;2023-04-01T13:02:39;319.60;;;308.47;;
13250;SDS011;6692;50.710;7.180;2023-04-01T13:04:51;338.40;;;326.37;;
13250;SDS011;6692;50.710;7.180;2023-04-01T13:09:28;328.03;;;316.60;;
13250;SDS011;6692;50.710;7.180;2023-04-01T13:16:11;350.77;;;338.30;;
13250;SDS011;6692;50.710;7.180;2023-04-01T13:18:20;394.53;;;380.13;;
13250;SDS011;6692;50.710;7.180;2023-04-01T13:21:31;407.37;;;392.20;;
13250;SDS011;6692;50.710;7.180;2023-04-01T13:22:50;374.90;;;361.10;;
13250;SDS011;6692;50.710;7.180;2023-04-01T13:25:06;397.80;;;383.37;;
13250;SDS011;6692;50.710;7.180;2023-04-01T13:27:40;416.07;;;400.77;;
13250;SDS011;6692;50.710;7.180;2023-04-01T13:29:35;372.60;;;359.33;;
13250;SDS011;6692;50.710;7.180;2023-04-01T13:31:50;365.77;;;352.70;;
13250;SDS011;6692;50.710;7.180;2023-04-01T13:36:36;395.30;;;381.03;;
13250;SDS011;6692;50.710;7.180;2023-04-01T13:38:45;410.47;;;395.30;;
13250;SDS011;6692;50.710;7.180;2023-04-01T13:41:22;385.13;;;371.20;;
13250;SDS011;6692;50.710;7.180;2023-04-01T13:43:28;388.50;;;374.47;;